createdAt,value
2017-07-01T00:01:16.219Z,23.31
2017-07-01T00:02:15.906Z,23.28
2017-07-01T00:03:15.881Z,23.36
2017-07-01T00:04:15.788Z,23.36
2017-07-01T00:05:15.491Z,23.4
2017-07-01T00:06:15.810Z,23.32
2017-07-01T00:07:15.595Z,23.37
2017-07-01T00:08:16.340Z,23.34
2017-07-01T00:09:15.471Z,23.4
2017-07-01T00:10:15.559Z,23.28
2017-07-01T00:11:15.605Z,23.25
2017-07-01T00:12:15.336Z,23.34
2017-07-01T00:13:14.893Z,23.39
2017-07-01T00:14:15.163Z,23.24
2017-07-01T00:15:15.856Z,23.37
2017-07-01T00:16:14.710Z,23.37
2017-07-01T00:17:14.974Z,23.27
2017-07-01T00:18:14.911Z,23.27
2017-07-01T00:19:14.533Z,23.27
2017-07-01T00:20:14.942Z,23.31
2017-07-01T00:21:14.725Z,23.36
2017-07-01T00:22:14.664Z,23.36
2017-07-01T00:23:14.601Z,23.39
2017-07-01T00:24:14.543Z,23.27
2017-07-01T00:25:14.728Z,23.32
2017-07-01T00:26:14.415Z,23.4
2017-07-01T00:27:14.510Z,23.27
2017-07-01T00:28:14.298Z,23.31
2017-07-01T00:29:14.231Z,23.31
2017-07-01T00:30:14.321Z,23.28
2017-07-01T00:31:14.115Z,23.31
2017-07-01T00:32:14.055Z,23.31
2017-07-01T00:33:13.983Z,23.32
2017-07-01T00:34:13.924Z,23.31
2017-07-01T00:35:13.830Z,23.32
2017-07-01T00:36:13.800Z,23.27
2017-07-01T00:37:14.085Z,23.36
2017-07-01T00:38:13.344Z,23.31
2017-07-01T00:39:13.284Z,23.28
2017-07-01T00:40:13.900Z,23.27
2017-07-01T00:41:13.486Z,23.32
2017-07-01T00:42:13.874Z,23.31
2017-07-01T00:43:13.361Z,23.36
2017-07-01T00:44:13.305Z,23.28
2017-07-01T00:45:13.487Z,23.31
2017-07-01T00:46:13.178Z,23.25
2017-07-01T00:47:12.460Z,23.28
2017-07-01T00:48:13.052Z,23.36
2017-07-01T00:49:12.993Z,23.34
2017-07-01T00:50:13.080Z,23.36
2017-07-01T00:51:12.868Z,23.28
2017-07-01T00:52:12.807Z,23.28
2017-07-01T00:53:12.746Z,23.36
2017-07-01T00:54:12.681Z,23.39
2017-07-01T00:55:12.917Z,23.39
2017-07-01T00:56:12.557Z,23.32
2017-07-01T00:57:12.493Z,23.25
2017-07-01T00:58:12.436Z,23.39
2017-07-01T00:59:12.372Z,23.36
2017-07-01T01:00:12.462Z,23.39
2017-07-01T01:01:12.247Z,23.27
2017-07-01T01:02:12.185Z,23.39
2017-07-01T01:03:12.127Z,23.39
2017-07-01T01:04:12.062Z,23.37
2017-07-01T01:05:12.104Z,23.37
2017-07-01T01:06:11.940Z,23.27
2017-07-01T01:07:11.875Z,23.37
2017-07-01T01:08:11.484Z,23.36
2017-07-01T01:09:11.754Z,23.27
2017-07-01T01:10:11.939Z,23.36
2017-07-01T01:11:11.630Z,23.37
2017-07-01T01:12:11.569Z,23.31
2017-07-01T01:13:11.505Z,23.28
2017-07-01T01:14:11.440Z,23.39
2017-07-01T01:15:11.383Z,23.27
2017-07-01T01:16:11.323Z,23.32
2017-07-01T01:17:11.255Z,23.36
2017-07-01T01:18:11.239Z,23.27
2017-07-01T01:19:11.131Z,23.37
2017-07-01T01:20:11.168Z,23.31
2017-07-01T01:21:11.005Z,23.34
2017-07-01T01:22:10.944Z,23.31
2017-07-01T01:23:10.883Z,23.28
2017-07-01T01:24:10.820Z,23.34
2017-07-01T01:25:11.259Z,23.36
2017-07-01T01:26:10.696Z,23.36
2017-07-01T01:27:10.634Z,23.32
2017-07-01T01:28:10.573Z,23.34
2017-07-01T01:29:10.183Z,23.32
2017-07-01T01:30:10.848Z,23.25
2017-07-01T01:31:10.385Z,23.28
2017-07-01T01:32:09.995Z,23.32
2017-07-01T01:33:09.941Z,23.36
2017-07-01T01:34:10.201Z,23.28
2017-07-01T01:35:10.390Z,23.32
2017-07-01T01:36:10.077Z,23.27
2017-07-01T01:37:10.016Z,23.28
2017-07-01T01:38:09.951Z,23.28
2017-07-01T01:39:09.890Z,23.28
2017-07-01T01:40:09.829Z,23.31
2017-07-01T01:41:09.770Z,23.31
2017-07-01T01:42:09.706Z,23.31
2017-07-01T01:43:09.643Z,23.27
2017-07-01T01:44:09.581Z,23.28
2017-07-01T01:45:09.672Z,23.28
2017-07-01T01:46:09.611Z,23.43
2017-07-01T01:47:09.071Z,23.28
2017-07-01T01:48:09.340Z,23.41
2017-07-01T01:49:09.273Z,23.31
2017-07-01T01:50:09.181Z,23.27
2017-07-01T01:51:09.446Z,23.28
2017-07-01T01:52:09.092Z,23.39
2017-07-01T01:53:09.024Z,23.28
2017-07-01T01:54:08.959Z,23.28
2017-07-01T01:55:09.201Z,23.32
2017-07-01T01:56:08.836Z,23.36
2017-07-01T01:57:08.448Z,23.34
2017-07-01T01:58:08.713Z,23.31
2017-07-01T01:59:08.325Z,23.25
2017-07-01T02:00:08.592Z,23.34
2017-07-01T02:01:08.728Z,23.28
2017-07-01T02:02:08.139Z,23.27
2017-07-01T02:03:08.402Z,23.34
2017-07-01T02:04:08.349Z,23.25
2017-07-01T02:05:08.284Z,23.31
2017-07-01T02:06:08.218Z,23.31
2017-07-01T02:07:07.877Z,23.24
2017-07-01T02:08:08.099Z,23.31
2017-07-01T02:09:08.038Z,23.32
2017-07-01T02:10:08.321Z,23.36
2017-07-01T02:11:07.911Z,23.31
2017-07-01T02:12:07.846Z,23.27
2017-07-01T02:13:07.785Z,23.34
2017-07-01T02:14:07.758Z,23.37
2017-07-01T02:15:07.815Z,23.24
2017-07-01T02:16:07.601Z,23.27
2017-07-01T02:17:07.536Z,23.27
2017-07-01T02:18:07.474Z,23.36
2017-07-01T02:19:07.413Z,23.25
2017-07-01T02:20:07.351Z,23.32
2017-07-01T02:21:07.289Z,23.37
2017-07-01T02:22:06.909Z,23.37
2017-07-01T02:23:07.164Z,23.36
2017-07-01T02:24:07.100Z,23.39
2017-07-01T02:25:07.040Z,23.34
2017-07-01T02:26:06.979Z,23.37
2017-07-01T02:27:06.917Z,23.34
2017-07-01T02:28:06.853Z,23.27
2017-07-01T02:29:06.794Z,23.36
2017-07-01T02:30:06.730Z,23.27
2017-07-01T02:31:06.667Z,23.31
2017-07-01T02:32:06.607Z,23.28
2017-07-01T02:33:06.545Z,23.36
2017-07-01T02:34:06.485Z,23.25
2017-07-01T02:35:06.421Z,23.4
2017-07-01T02:36:06.513Z,23.34
2017-07-01T02:37:06.341Z,23.37
2017-07-01T02:38:06.236Z,23.24
2017-07-01T02:39:06.220Z,23.37
2017-07-01T02:40:05.827Z,23.36
2017-07-01T02:41:06.150Z,23.25
2017-07-01T02:42:05.659Z,23.32
2017-07-01T02:43:05.968Z,23.31
2017-07-01T02:44:05.870Z,23.32
2017-07-01T02:45:05.803Z,23.34
2017-07-01T02:46:05.743Z,23.37
2017-07-01T02:47:05.678Z,23.37
2017-07-01T02:48:05.617Z,23.36
2017-07-01T02:49:05.553Z,23.31
2017-07-01T02:50:05.493Z,23.25
2017-07-01T02:51:05.429Z,23.32
2017-07-01T02:52:05.366Z,23.34
2017-07-01T02:53:04.978Z,23.31
2017-07-01T02:54:04.918Z,23.31
2017-07-01T02:55:05.184Z,23.28
2017-07-01T02:56:05.119Z,23.28
2017-07-01T02:57:05.059Z,23.27
2017-07-01T02:58:05.000Z,23.32
2017-07-01T02:59:04.938Z,23.37
2017-07-01T03:00:04.872Z,23.28
2017-07-01T03:01:04.810Z,23.28
2017-07-01T03:02:04.747Z,23.32
2017-07-01T03:03:04.684Z,23.25
2017-07-01T03:04:04.630Z,23.4
2017-07-01T03:05:04.566Z,23.41
2017-07-01T03:06:04.498Z,23.27
2017-07-01T03:07:04.437Z,23.27
2017-07-01T03:08:04.375Z,23.31
2017-07-01T03:09:04.313Z,23.37
2017-07-01T03:10:04.400Z,23.27
2017-07-01T03:11:04.190Z,23.36
2017-07-01T03:12:03.803Z,23.32
2017-07-01T03:13:04.081Z,23.34
2017-07-01T03:14:04.003Z,23.25
2017-07-01T03:15:03.941Z,23.37
2017-07-01T03:16:03.878Z,23.32
2017-07-01T03:17:03.816Z,23.28
2017-07-01T03:18:03.753Z,23.32
2017-07-01T03:19:03.692Z,23.25
2017-07-01T03:20:03.305Z,23.27
2017-07-01T03:21:03.567Z,23.32
2017-07-01T03:22:03.509Z,23.28
2017-07-01T03:23:03.447Z,23.27
2017-07-01T03:24:03.384Z,23.32
2017-07-01T03:25:03.323Z,23.32
2017-07-01T03:26:03.259Z,23.36
2017-07-01T03:27:03.197Z,23.36
2017-07-01T03:28:03.137Z,23.36
2017-07-01T03:29:03.073Z,23.37
2017-07-01T03:30:03.013Z,23.32
2017-07-01T03:31:02.949Z,23.36
2017-07-01T03:32:02.887Z,23.32
2017-07-01T03:33:02.827Z,23.27
2017-07-01T03:34:02.762Z,23.32
2017-07-01T03:35:02.701Z,23.28
2017-07-01T03:36:02.890Z,23.27
2017-07-01T03:37:02.578Z,23.36
2017-07-01T03:38:02.520Z,23.32
2017-07-01T03:39:02.460Z,23.37
2017-07-01T03:40:02.496Z,23.34
2017-07-01T03:41:02.328Z,23.28
2017-07-01T03:42:02.271Z,23.27
2017-07-01T03:43:02.218Z,23.32
2017-07-01T03:44:02.145Z,23.36
2017-07-01T03:45:02.079Z,23.37
2017-07-01T03:46:02.018Z,23.25
2017-07-01T03:47:01.963Z,23.23
2017-07-01T03:48:01.894Z,23.25
2017-07-01T03:49:01.840Z,23.36
2017-07-01T03:50:01.771Z,23.37
2017-07-01T03:51:02.017Z,23.31
2017-07-01T03:52:01.655Z,23.27
2017-07-01T03:53:01.589Z,23.39
2017-07-01T03:54:01.536Z,23.39
2017-07-01T03:55:01.463Z,23.36
2017-07-01T03:56:01.403Z,23.32
2017-07-01T03:57:01.337Z,23.34
2017-07-01T03:58:01.285Z,23.31
2017-07-01T03:59:01.248Z,23.25
2017-07-01T04:00:01.155Z,23.36
2017-07-01T04:01:01.090Z,23.32
2017-07-01T04:02:01.029Z,23.31
2017-07-01T04:03:00.964Z,23.28
2017-07-01T04:04:00.905Z,23.25
2017-07-01T04:05:00.838Z,23.25
2017-07-01T04:06:00.780Z,23.36
2017-07-01T04:07:00.721Z,23.36
2017-07-01T04:08:00.662Z,23.25
2017-07-01T04:09:00.594Z,23.32
2017-07-01T04:10:00.530Z,23.37
2017-07-01T04:11:00.469Z,23.32
2017-07-01T04:12:00.708Z,23.36
2017-07-01T04:13:00.343Z,23.36
2017-07-01T04:14:00.280Z,23.28
2017-07-01T04:15:00.221Z,23.32
2017-07-01T04:16:00.160Z,23.37
2017-07-01T04:17:00.097Z,23.32
2017-07-01T04:18:00.035Z,23.36
2017-07-01T04:18:59.975Z,23.31
2017-07-01T04:19:59.910Z,23.36
2017-07-01T04:20:59.848Z,23.34
2017-07-01T04:21:59.798Z,23.36
2017-07-01T04:22:59.775Z,23.34
2017-07-01T04:23:59.669Z,23.34
2017-07-01T04:24:59.602Z,23.31
2017-07-01T04:25:59.542Z,23.31
2017-07-01T04:26:59.478Z,23.39
2017-07-01T04:27:59.417Z,23.32
2017-07-01T04:28:59.365Z,23.27
2017-07-01T04:29:59.293Z,23.39
2017-07-01T04:30:59.229Z,23.34
2017-07-01T04:31:59.167Z,23.36
2017-07-01T04:32:59.123Z,23.32
2017-07-01T04:33:59.047Z,23.31
2017-07-01T04:34:58.989Z,23.39
2017-07-01T04:35:58.921Z,23.27
2017-07-01T04:36:58.528Z,23.36
2017-07-01T04:37:58.798Z,23.27
2017-07-01T04:38:58.733Z,23.27
2017-07-01T04:39:58.668Z,23.34
2017-07-01T04:40:58.607Z,23.32
2017-07-01T04:41:58.545Z,23.32
2017-07-01T04:42:58.484Z,23.37
2017-07-01T04:43:58.425Z,23.39
2017-07-01T04:44:58.360Z,23.25
2017-07-01T04:45:58.296Z,23.34
2017-07-01T04:46:58.236Z,23.32
2017-07-01T04:47:58.176Z,23.36
2017-07-01T04:48:58.114Z,23.27
2017-07-01T04:49:58.055Z,23.31
2017-07-01T04:50:57.986Z,23.25
2017-07-01T04:51:57.931Z,23.37
2017-07-01T04:52:57.536Z,23.37
2017-07-01T04:53:57.806Z,23.37
2017-07-01T04:54:57.744Z,23.28
2017-07-01T04:55:57.676Z,23.34
2017-07-01T04:56:57.616Z,23.36
2017-07-01T04:57:57.558Z,23.34
2017-07-01T04:58:57.493Z,23.37
2017-07-01T04:59:57.432Z,23.32
2017-07-01T05:00:57.367Z,23.32
2017-07-01T05:01:57.305Z,23.36
2017-07-01T05:02:57.246Z,23.32
2017-07-01T05:03:57.288Z,23.32
2017-07-01T05:04:57.121Z,23.27
2017-07-01T05:05:56.731Z,23.28
2017-07-01T05:06:56.995Z,23.34
2017-07-01T05:07:56.932Z,23.25
2017-07-01T05:08:57.121Z,23.37
2017-07-01T05:09:56.810Z,23.36
2017-07-01T05:10:56.748Z,23.25
2017-07-01T05:11:56.686Z,23.31
2017-07-01T05:12:56.627Z,23.37
2017-07-01T05:13:56.568Z,23.32
2017-07-01T05:14:56.499Z,23.25
2017-07-01T05:15:56.439Z,23.25
2017-07-01T05:16:56.048Z,23.37
2017-07-01T05:17:56.310Z,23.23
2017-07-01T05:18:56.253Z,23.27
2017-07-01T05:19:56.189Z,23.27
2017-07-01T05:20:56.129Z,23.36
2017-07-01T05:21:56.066Z,23.31
2017-07-01T05:22:56.005Z,23.37
2017-07-01T05:23:55.612Z,23.2
2017-07-01T05:24:55.878Z,23.32
2017-07-01T05:25:55.815Z,23.23
2017-07-01T05:26:55.754Z,23.32
2017-07-01T05:27:55.692Z,23.36
2017-07-01T05:28:55.629Z,23.27
2017-07-01T05:29:55.668Z,23.32
2017-07-01T05:30:55.507Z,23.34
2017-07-01T05:31:55.447Z,23.36
2017-07-01T05:32:55.383Z,23.39
2017-07-01T05:33:55.320Z,23.28
2017-07-01T05:34:55.259Z,23.27
2017-07-01T05:35:55.200Z,23.27
2017-07-01T05:36:55.134Z,23.27
2017-07-01T05:37:54.749Z,23.32
2017-07-01T05:38:55.013Z,23.32
2017-07-01T05:39:54.947Z,23.31
2017-07-01T05:40:54.886Z,23.25
2017-07-01T05:41:54.828Z,23.31
2017-07-01T05:42:54.764Z,23.31
2017-07-01T05:43:54.699Z,23.32
2017-07-01T05:44:54.636Z,23.27
2017-07-01T05:45:54.579Z,23.28
2017-07-01T05:46:54.189Z,23.27
2017-07-01T05:47:54.452Z,23.27
2017-07-01T05:48:54.400Z,23.41
2017-07-01T05:49:54.330Z,23.25
2017-07-01T05:50:54.264Z,23.31
2017-07-01T05:51:54.203Z,23.34
2017-07-01T05:52:54.153Z,23.37
2017-07-01T05:53:54.079Z,23.27
2017-07-01T05:54:54.016Z,23.31
2017-07-01T05:55:54.304Z,23.31
2017-07-01T05:56:53.566Z,23.31
2017-07-01T05:57:53.839Z,23.25
2017-07-01T05:58:53.440Z,23.34
2017-07-01T05:59:53.377Z,23.25
2017-07-01T06:00:53.620Z,23.39
2017-07-01T06:01:53.588Z,23.27
2017-07-01T06:02:53.529Z,23.32
2017-07-01T06:03:53.463Z,23.34
2017-07-01T06:04:53.400Z,23.32
2017-07-01T06:05:53.372Z,23.24
2017-07-01T06:06:53.277Z,23.32
2017-07-01T06:07:53.214Z,23.37
2017-07-01T06:08:53.151Z,23.37
2017-07-01T06:09:52.761Z,23.32
2017-07-01T06:10:52.700Z,23.25
2017-07-01T06:11:52.634Z,23.27
2017-07-01T06:12:52.946Z,23.25
2017-07-01T06:13:53.040Z,23.23
2017-07-01T06:14:52.781Z,23.32
2017-07-01T06:15:52.713Z,23.32
2017-07-01T06:16:52.650Z,23.27
2017-07-01T06:17:52.594Z,23.34
2017-07-01T06:18:52.198Z,23.25
2017-07-01T06:19:52.468Z,23.28
2017-07-01T06:20:52.406Z,23.23
2017-07-01T06:21:52.118Z,23.2
2017-07-01T06:22:52.282Z,23.25
2017-07-01T06:23:52.224Z,23.32
2017-07-01T06:24:52.159Z,23.32
2017-07-01T06:25:52.020Z,23.32
2017-07-01T06:26:52.037Z,23.36
2017-07-01T06:27:51.971Z,23.28
2017-07-01T06:28:51.911Z,23.32
2017-07-01T06:29:51.848Z,23.27
2017-07-01T06:30:51.495Z,23.28
2017-07-01T06:31:51.725Z,23.36
2017-07-01T06:32:51.663Z,23.27
2017-07-01T06:33:51.598Z,23.36
2017-07-01T06:34:51.536Z,23.32
2017-07-01T06:35:51.578Z,23.37
2017-07-01T06:36:51.411Z,23.34
2017-07-01T06:37:51.356Z,23.23
2017-07-01T06:38:51.298Z,23.32
2017-07-01T06:39:51.228Z,23.39
2017-07-01T06:40:51.412Z,23.23
2017-07-01T06:41:51.109Z,23.31
2017-07-01T06:42:51.041Z,23.34
2017-07-01T06:43:50.982Z,23.37
2017-07-01T06:44:50.919Z,23.34
2017-07-01T06:45:50.858Z,23.27
2017-07-01T06:46:50.793Z,23.28
2017-07-01T06:47:50.730Z,23.34
2017-07-01T06:48:50.673Z,23.36
2017-07-01T06:49:50.606Z,23.37
2017-07-01T06:50:50.544Z,23.27
2017-07-01T06:51:50.481Z,23.4
2017-07-01T06:52:50.097Z,23.27
2017-07-01T06:53:50.362Z,23.34
2017-07-01T06:54:49.966Z,23.28
2017-07-01T06:55:50.244Z,23.28
2017-07-01T06:56:49.841Z,23.39
2017-07-01T06:57:50.109Z,23.34
2017-07-01T06:58:50.047Z,23.27
2017-07-01T06:59:49.986Z,23.25
2017-07-01T07:00:49.596Z,23.28
2017-07-01T07:01:49.870Z,23.36
2017-07-01T07:02:49.801Z,23.36
2017-07-01T07:03:49.736Z,23.32
2017-07-01T07:04:49.676Z,23.39
2017-07-01T07:05:49.863Z,23.28
2017-07-01T07:06:49.557Z,23.37
2017-07-01T07:07:49.493Z,23.25
2017-07-01T07:08:49.430Z,23.32
2017-07-01T07:09:49.376Z,23.28
2017-07-01T07:10:49.453Z,23.32
2017-07-01T07:11:48.916Z,23.32
2017-07-01T07:12:49.179Z,23.37
2017-07-01T07:13:48.798Z,23.32
2017-07-01T07:14:49.057Z,23.28
2017-07-01T07:15:48.993Z,23.39
2017-07-01T07:16:48.934Z,23.31
2017-07-01T07:17:48.869Z,23.39
2017-07-01T07:18:48.809Z,23.27
2017-07-01T07:19:48.748Z,23.37
2017-07-01T07:20:48.683Z,23.31
2017-07-01T07:21:48.624Z,23.28
2017-07-01T07:22:48.566Z,23.32
2017-07-01T07:23:48.497Z,23.28
2017-07-01T07:24:48.450Z,23.34
2017-07-01T07:25:48.384Z,23.27
2017-07-01T07:26:48.412Z,23.27
2017-07-01T07:27:48.255Z,23.39
2017-07-01T07:28:48.188Z,23.32
2017-07-01T07:29:48.131Z,23.32
2017-07-01T07:30:48.464Z,23.4
2017-07-01T07:31:48.004Z,23.43
2017-07-01T07:32:47.943Z,23.4
2017-07-01T07:33:47.884Z,23.32
2017-07-01T07:34:47.487Z,23.31
2017-07-01T07:35:47.756Z,23.34
2017-07-01T07:36:47.692Z,23.34
2017-07-01T07:37:47.628Z,23.32
2017-07-01T07:38:47.567Z,23.41
2017-07-01T07:39:47.506Z,23.28
2017-07-01T07:40:47.792Z,23.28
2017-07-01T07:41:47.387Z,23.32
2017-07-01T07:42:47.322Z,23.37
2017-07-01T07:43:47.262Z,23.28
2017-07-01T07:44:47.197Z,23.31
2017-07-01T07:45:47.135Z,23.28
2017-07-01T07:46:47.072Z,23.28
2017-07-01T07:47:47.010Z,23.34
2017-07-01T07:48:46.951Z,23.27
2017-07-01T07:49:46.922Z,23.27
2017-07-01T07:50:46.926Z,23.25
2017-07-01T07:51:46.758Z,23.28
2017-07-01T07:52:46.377Z,23.32
2017-07-01T07:53:46.633Z,23.37
2017-07-01T07:54:46.579Z,23.37
2017-07-01T07:55:46.773Z,23.31
2017-07-01T07:56:46.449Z,23.25
2017-07-01T07:57:46.389Z,23.27
2017-07-01T07:58:46.327Z,23.31
2017-07-01T07:59:46.263Z,23.32
2017-07-01T08:00:46.125Z,23.36
2017-07-01T08:01:45.814Z,23.31
2017-07-01T08:02:46.079Z,23.37
2017-07-01T08:03:46.021Z,23.31
2017-07-01T08:04:45.957Z,23.27
2017-07-01T08:05:46.044Z,23.41
2017-07-01T08:06:45.832Z,23.37
2017-07-01T08:07:45.771Z,23.32
2017-07-01T08:08:45.711Z,23.31
2017-07-01T08:09:45.315Z,23.34
2017-07-01T08:10:45.682Z,23.32
2017-07-01T08:11:45.521Z,23.34
2017-07-01T08:12:45.481Z,23.36
2017-07-01T08:13:45.402Z,23.34
2017-07-01T08:14:45.334Z,23.36
2017-07-01T08:15:45.524Z,23.36
2017-07-01T08:16:45.209Z,23.32
2017-07-01T08:17:45.147Z,23.32
2017-07-01T08:18:45.087Z,23.46
2017-07-01T08:19:45.026Z,23.47
2017-07-01T08:20:45.562Z,23.44
2017-07-01T08:21:44.949Z,23.37
2017-07-01T08:22:44.512Z,23.39
2017-07-01T08:23:44.803Z,23.46
2017-07-01T08:24:44.715Z,23.37
2017-07-01T08:25:44.725Z,23.41
2017-07-01T08:26:44.593Z,23.39
2017-07-01T08:27:44.533Z,23.41
2017-07-01T08:28:44.670Z,23.41
2017-07-01T08:29:44.651Z,23.44
2017-07-01T08:30:44.446Z,23.5
2017-07-01T08:31:44.284Z,23.46
2017-07-01T08:32:44.217Z,23.5
2017-07-01T08:33:44.159Z,23.47
2017-07-01T08:34:44.094Z,23.4
2017-07-01T08:35:44.393Z,23.44
2017-07-01T08:36:43.978Z,23.46
2017-07-01T08:37:43.911Z,23.44
2017-07-01T08:38:43.850Z,23.47
2017-07-01T08:39:43.783Z,23.46
2017-07-01T08:40:43.972Z,23.5
2017-07-01T08:41:43.910Z,23.46
2017-07-01T08:42:43.596Z,23.4
2017-07-01T08:43:43.539Z,23.43
2017-07-01T08:44:43.482Z,23.44
2017-07-01T08:45:43.662Z,23.46
2017-07-01T08:46:43.760Z,23.46
2017-07-01T08:47:43.291Z,23.47
2017-07-01T08:48:43.230Z,23.4
2017-07-01T08:49:43.164Z,23.46
2017-07-01T08:50:43.026Z,23.4
2017-07-01T08:51:43.191Z,23.44
2017-07-01T08:52:42.654Z,23.48
2017-07-01T08:53:42.916Z,23.44
2017-07-01T08:54:42.856Z,23.47
2017-07-01T08:55:43.044Z,23.46
2017-07-01T08:56:42.736Z,23.44
2017-07-01T08:57:42.668Z,23.47
2017-07-01T08:58:42.612Z,23.5
2017-07-01T08:59:42.546Z,23.46
2017-07-01T09:00:42.847Z,23.48
2017-07-01T09:01:42.430Z,23.55
2017-07-01T09:02:42.077Z,23.48
2017-07-01T09:03:42.311Z,23.58
2017-07-01T09:04:41.914Z,23.44
2017-07-01T09:05:42.430Z,23.5
2017-07-01T09:06:42.130Z,23.5
2017-07-01T09:07:42.055Z,23.5
2017-07-01T09:08:41.660Z,23.54
2017-07-01T09:09:41.926Z,23.51
2017-07-01T09:10:42.390Z,23.54
2017-07-01T09:11:41.805Z,23.46
2017-07-01T09:12:41.415Z,23.56
2017-07-01T09:13:41.675Z,23.54
2017-07-01T09:14:41.621Z,23.41
2017-07-01T09:15:41.530Z,23.39
2017-07-01T09:16:41.496Z,23.5
2017-07-01T09:17:41.429Z,23.41
2017-07-01T09:18:41.367Z,23.54
2017-07-01T09:19:40.980Z,23.55
2017-07-01T09:20:41.496Z,23.56
2017-07-01T09:21:41.187Z,23.5
2017-07-01T09:22:41.125Z,23.55
2017-07-01T09:23:41.059Z,23.54
2017-07-01T09:24:40.997Z,23.54
2017-07-01T09:25:41.286Z,23.51
2017-07-01T09:26:40.877Z,23.54
2017-07-01T09:27:40.864Z,23.55
2017-07-01T09:28:40.751Z,23.58
2017-07-01T09:29:40.693Z,23.48
2017-07-01T09:30:40.727Z,23.55
2017-07-01T09:31:40.566Z,23.54
2017-07-01T09:32:40.504Z,23.55
2017-07-01T09:33:40.447Z,23.51
2017-07-01T09:34:40.381Z,23.55
2017-07-01T09:35:40.468Z,23.51
2017-07-01T09:36:39.938Z,23.5
2017-07-01T09:37:40.195Z,23.55
2017-07-01T09:38:40.158Z,23.54
2017-07-01T09:39:40.070Z,23.5
2017-07-01T09:40:40.166Z,23.54
2017-07-01T09:41:39.625Z,23.51
2017-07-01T09:42:39.556Z,23.51
2017-07-01T09:43:39.823Z,23.51
2017-07-01T09:44:39.432Z,23.5
2017-07-01T09:45:39.998Z,23.48
2017-07-01T09:46:39.282Z,23.5
2017-07-01T09:47:39.254Z,23.54
2017-07-01T09:48:39.511Z,23.55
2017-07-01T09:49:39.500Z,23.48
2017-07-01T09:50:39.387Z,23.54
2017-07-01T09:51:39.326Z,23.54
2017-07-01T09:52:39.263Z,23.58
2017-07-01T09:53:39.209Z,23.62
2017-07-01T09:54:39.343Z,23.63
2017-07-01T09:55:39.079Z,23.55
2017-07-01T09:56:39.014Z,23.58
2017-07-01T09:57:38.953Z,23.51
2017-07-01T09:58:38.892Z,23.56
2017-07-01T09:59:38.834Z,23.56
2017-07-01T10:00:39.171Z,23.54
2017-07-01T10:01:38.379Z,23.54
2017-07-01T10:02:38.642Z,23.5
2017-07-01T10:03:38.254Z,23.58
2017-07-01T10:04:38.520Z,23.58
2017-07-01T10:05:38.432Z,23.56
2017-07-01T10:06:38.397Z,23.56
2017-07-01T10:07:38.334Z,23.61
2017-07-01T10:08:38.274Z,23.59
2017-07-01T10:09:38.219Z,23.59
2017-07-01T10:10:37.969Z,23.56
2017-07-01T10:11:38.089Z,23.54
2017-07-01T10:12:38.030Z,23.51
2017-07-01T10:13:37.986Z,23.56
2017-07-01T10:14:37.904Z,23.59
2017-07-01T10:15:38.092Z,23.61
2017-07-01T10:16:37.450Z,23.58
2017-07-01T10:17:37.390Z,23.62
2017-07-01T10:18:37.658Z,23.61
2017-07-01T10:19:37.603Z,23.56
2017-07-01T10:20:37.631Z,23.54
2017-07-01T10:21:37.627Z,23.47
2017-07-01T10:22:37.417Z,23.56
2017-07-01T10:23:37.351Z,23.5
2017-07-01T10:24:37.284Z,23.54
2017-07-01T10:25:37.048Z,23.55
2017-07-01T10:26:37.417Z,23.56
2017-07-01T10:27:37.096Z,23.63
2017-07-01T10:28:37.034Z,23.59
2017-07-01T10:29:36.975Z,23.61
2017-07-01T10:30:36.832Z,23.54
2017-07-01T10:31:37.404Z,23.63
2017-07-01T10:32:36.468Z,23.61
2017-07-01T10:33:36.437Z,23.54
2017-07-01T10:34:36.339Z,23.59
2017-07-01T10:35:36.525Z,23.51
2017-07-01T10:36:36.541Z,23.61
2017-07-01T10:37:36.479Z,23.58
2017-07-01T10:38:36.417Z,23.62
2017-07-01T10:39:36.025Z,23.62
2017-07-01T10:40:36.216Z,23.51
2017-07-01T10:41:36.232Z,23.59
2017-07-01T10:42:36.170Z,23.65
2017-07-01T10:43:36.115Z,23.51
2017-07-01T10:44:36.047Z,23.59
2017-07-01T10:45:36.386Z,23.54
2017-07-01T10:46:35.922Z,23.62
2017-07-01T10:47:35.861Z,23.58
2017-07-01T10:48:35.830Z,23.55
2017-07-01T10:49:35.736Z,23.59
2017-07-01T10:50:35.823Z,23.58
2017-07-01T10:51:35.616Z,23.61
2017-07-01T10:52:35.555Z,23.59
2017-07-01T10:53:35.490Z,23.56
2017-07-01T10:54:35.430Z,23.65
2017-07-01T10:55:35.519Z,23.51
2017-07-01T10:56:34.981Z,23.51
2017-07-01T10:57:35.247Z,23.51
2017-07-01T10:58:35.179Z,23.51
2017-07-01T10:59:35.120Z,23.59
2017-07-01T11:00:34.830Z,23.48
2017-07-01T11:01:34.997Z,23.51
2017-07-01T11:02:34.937Z,23.56
2017-07-01T11:03:34.868Z,23.51
2017-07-01T11:04:34.808Z,23.61
2017-07-01T11:05:34.754Z,23.5
2017-07-01T11:06:34.690Z,23.59
2017-07-01T11:07:34.625Z,23.56
2017-07-01T11:08:34.565Z,23.61
2017-07-01T11:09:34.172Z,23.56
2017-07-01T11:10:34.695Z,23.59
2017-07-01T11:11:34.377Z,23.58
2017-07-01T11:12:34.316Z,23.62
2017-07-01T11:13:34.253Z,23.58
2017-07-01T11:14:34.195Z,23.62
2017-07-01T11:15:34.382Z,23.55
2017-07-01T11:16:34.067Z,23.59
2017-07-01T11:17:33.681Z,23.59
2017-07-01T11:18:33.943Z,23.58
2017-07-01T11:19:33.556Z,23.59
2017-07-01T11:20:33.973Z,23.58
2017-07-01T11:21:33.759Z,23.58
2017-07-01T11:22:33.695Z,23.61
2017-07-01T11:23:33.306Z,23.55
2017-07-01T11:24:33.571Z,23.65
2017-07-01T11:25:33.811Z,23.58
2017-07-01T11:26:33.126Z,23.56
2017-07-01T11:27:33.385Z,23.61
2017-07-01T11:28:33.326Z,23.58
2017-07-01T11:29:33.270Z,23.55
2017-07-01T11:30:33.199Z,23.66
2017-07-01T11:31:32.832Z,23.59
2017-07-01T11:32:33.090Z,23.62
2017-07-01T11:33:33.019Z,23.62
2017-07-01T11:34:32.638Z,23.56
2017-07-01T11:35:32.485Z,23.55
2017-07-01T11:36:32.830Z,23.61
2017-07-01T11:37:32.447Z,23.63
2017-07-01T11:38:32.386Z,23.59
2017-07-01T11:39:32.648Z,23.62
2017-07-01T11:40:33.015Z,23.63
2017-07-01T11:41:32.524Z,23.65
2017-07-01T11:42:32.459Z,23.58
2017-07-01T11:43:32.399Z,23.55
2017-07-01T11:44:32.335Z,23.58
2017-07-01T11:45:32.423Z,23.61
2017-07-01T11:46:32.214Z,23.62
2017-07-01T11:47:32.353Z,23.58
2017-07-01T11:48:32.091Z,23.68
2017-07-01T11:49:32.032Z,23.59
2017-07-01T11:50:31.786Z,23.55
2017-07-01T11:51:31.905Z,23.59
2017-07-01T11:52:31.515Z,23.61
2017-07-01T11:53:31.782Z,23.59
2017-07-01T11:54:31.720Z,23.65
2017-07-01T11:55:31.658Z,23.65
2017-07-01T11:56:31.595Z,23.68
2017-07-01T11:57:31.531Z,23.68
2017-07-01T11:58:31.478Z,23.62
2017-07-01T11:59:31.408Z,23.62
2017-07-01T12:00:31.869Z,23.66
2017-07-01T12:01:31.294Z,23.65
2017-07-01T12:02:31.221Z,23.63
2017-07-01T12:03:31.160Z,23.66
2017-07-01T12:04:31.121Z,23.62
2017-07-01T12:05:30.812Z,23.62
2017-07-01T12:06:30.975Z,23.58
2017-07-01T12:07:30.914Z,23.65
2017-07-01T12:08:30.853Z,23.66
2017-07-01T12:09:30.136Z,23.63
2017-07-01T12:10:30.899Z,23.65
2017-07-01T12:11:30.338Z,23.62
2017-07-01T12:12:30.606Z,23.62
2017-07-01T12:13:30.214Z,23.68
2017-07-01T12:14:30.487Z,23.59
2017-07-01T12:15:30.571Z,23.58
2017-07-01T12:16:30.358Z,23.63
2017-07-01T12:17:30.297Z,23.66
2017-07-01T12:18:30.234Z,23.66
2017-07-01T12:19:30.173Z,23.58
2017-07-01T12:20:30.359Z,23.63
2017-07-01T12:21:29.725Z,23.68
2017-07-01T12:22:29.987Z,23.71
2017-07-01T12:23:29.924Z,23.65
2017-07-01T12:24:29.868Z,23.59
2017-07-01T12:25:44.322Z,23.62
2017-07-01T12:26:29.978Z,23.61
2017-07-01T12:27:29.679Z,23.68
2017-07-01T12:28:29.289Z,23.61
2017-07-01T12:29:29.556Z,23.63
2017-07-01T12:30:29.643Z,23.63
2017-07-01T12:31:29.257Z,23.65
2017-07-01T12:32:29.380Z,23.63
2017-07-01T12:33:28.981Z,23.66
2017-07-01T12:34:29.246Z,23.59
2017-07-01T12:35:29.184Z,23.59
2017-07-01T12:36:29.627Z,23.61
2017-07-01T12:37:28.732Z,23.61
2017-07-01T12:38:29.003Z,23.65
2017-07-01T12:39:28.941Z,23.65
2017-07-01T12:40:29.022Z,23.59
2017-07-01T12:41:28.912Z,23.62
2017-07-01T12:42:28.756Z,23.63
2017-07-01T12:43:28.701Z,23.63
2017-07-01T12:44:28.628Z,23.66
2017-07-01T12:45:28.716Z,23.63
2017-07-01T12:46:28.771Z,23.65
2017-07-01T12:47:28.117Z,23.69
2017-07-01T12:48:28.380Z,23.68
2017-07-01T12:49:28.321Z,23.71
2017-07-01T12:50:28.259Z,23.62
2017-07-01T12:51:27.870Z,23.65
2017-07-01T12:52:27.811Z,23.66
2017-07-01T12:53:28.074Z,23.68